sensor_id;sensor_type;location;lat;lon;timestamp;P1;durP1;ratioP1;P2;durP2;ratioP2
12921;SDS011;6528;48.086;16.282;2022-07-15T00:02:25;1.90;;;1.80;;
12921;SDS011;6528;48.086;16.282;2022-07-15T00:04:52;1.70;;;1.50;;
12921;SDS011;6528;48.086;16.282;2022-07-15T00:07:19;1.80;;;1.70;;
12921;SDS011;6528;48.086;16.282;2022-07-15T00:09:46;2.30;;;1.97;;
12921;SDS011;6528;48.086;16.282;2022-07-15T00:12:32;1.80;;;1.70;;
12921;SDS011;6528;48.086;16.282;2022-07-15T00:14:59;1.73;;;1.63;;
12921;SDS011;6528;48.086;16.282;2022-07-15T00:17:26;2.17;;;1.80;;
12921;SDS011;6528;48.086;16.282;2022-07-15T00:19:53;1.87;;;1.67;;
12921;SDS011;6528;48.086;16.282;2022-07-15T00:22:20;2.07;;;1.60;;
12921;SDS011;6528;48.086;16.282;2022-07-15T00:24:47;1.60;;;1.50;;
12921;SDS011;6528;48.086;16.282;2022-07-15T00:27:14;3.87;;;2.10;;
12921;SDS011;6528;48.086;16.282;2022-07-15T00:29:41;2.40;;;1.80;;
12921;SDS011;6528;48.086;16.282;2022-07-15T00:32:08;3.33;;;1.43;;
12921;SDS011;6528;48.086;16.282;2022-07-15T00:34:35;1.77;;;1.67;;
12921;SDS011;6528;48.086;16.282;2022-07-15T00:37:02;1.80;;;1.70;;
12921;SDS011;6528;48.086;16.282;2022-07-15T00:39:30;1.80;;;1.70;;
12921;SDS011;6528;48.086;16.282;2022-07-15T00:41:56;2.00;;;1.80;;
12921;SDS011;6528;48.086;16.282;2022-07-15T00:44:23;1.97;;;1.83;;
12921;SDS011;6528;48.086;16.282;2022-07-15T00:46:51;5.43;;;3.00;;
12921;SDS011;6528;48.086;16.282;2022-07-15T00:49:19;2.03;;;1.87;;
12921;SDS011;6528;48.086;16.282;2022-07-15T00:51:47;2.83;;;2.07;;
12921;SDS011;6528;48.086;16.282;2022-07-15T00:54:17;2.93;;;2.30;;
12921;SDS011;6528;48.086;16.282;2022-07-15T00:56:50;2.00;;;1.90;;
12921;SDS011;6528;48.086;16.282;2022-07-15T00:59:23;2.57;;;2.43;;
12921;SDS011;6528;48.086;16.282;2022-07-15T01:01:57;2.07;;;1.97;;
12921;SDS011;6528;48.086;16.282;2022-07-15T01:04:24;3.10;;;2.90;;
12921;SDS011;6528;48.086;16.282;2022-07-15T01:06:52;2.77;;;2.60;;
12921;SDS011;6528;48.086;16.282;2022-07-15T01:09:19;3.60;;;2.40;;
12921;SDS011;6528;48.086;16.282;2022-07-15T01:11:47;2.83;;;2.63;;
12921;SDS011;6528;48.086;16.282;2022-07-15T01:14:14;2.57;;;2.40;;
12921;SDS011;6528;48.086;16.282;2022-07-15T01:16:42;2.73;;;2.53;;
12921;SDS011;6528;48.086;16.282;2022-07-15T01:19:09;2.90;;;2.67;;
12921;SDS011;6528;48.086;16.282;2022-07-15T01:21:36;2.73;;;2.50;;
12921;SDS011;6528;48.086;16.282;2022-07-15T01:24:03;2.40;;;2.20;;
12921;SDS011;6528;48.086;16.282;2022-07-15T01:26:30;2.50;;;2.30;;
12921;SDS011;6528;48.086;16.282;2022-07-15T01:28:57;2.50;;;2.37;;
12921;SDS011;6528;48.086;16.282;2022-07-15T01:31:24;2.73;;;2.53;;
12921;SDS011;6528;48.086;16.282;2022-07-15T01:33:51;2.50;;;2.30;;
12921;SDS011;6528;48.086;16.282;2022-07-15T01:36:20;3.30;;;3.00;;
12921;SDS011;6528;48.086;16.282;2022-07-15T01:38:47;2.60;;;2.43;;
12921;SDS011;6528;48.086;16.282;2022-07-15T01:41:34;2.50;;;2.30;;
12921;SDS011;6528;48.086;16.282;2022-07-15T01:44:01;2.63;;;2.40;;
12921;SDS011;6528;48.086;16.282;2022-07-15T01:46:28;4.50;;;2.60;;
12921;SDS011;6528;48.086;16.282;2022-07-15T01:48:55;2.60;;;2.50;;
12921;SDS011;6528;48.086;16.282;2022-07-15T01:51:40;3.17;;;2.93;;
12921;SDS011;6528;48.086;16.282;2022-07-15T01:54:07;3.10;;;2.90;;
12921;SDS011;6528;48.086;16.282;2022-07-15T01:56:34;3.10;;;2.77;;
12921;SDS011;6528;48.086;16.282;2022-07-15T01:59:02;3.00;;;2.80;;
12921;SDS011;6528;48.086;16.282;2022-07-15T02:01:29;2.80;;;2.60;;
12921;SDS011;6528;48.086;16.282;2022-07-15T02:03:56;3.03;;;2.73;;
12921;SDS011;6528;48.086;16.282;2022-07-15T02:06:23;3.17;;;2.90;;
12921;SDS011;6528;48.086;16.282;2022-07-15T02:08:50;3.30;;;3.00;;
12921;SDS011;6528;48.086;16.282;2022-07-15T02:11:17;3.07;;;2.87;;
12921;SDS011;6528;48.086;16.282;2022-07-15T02:13:44;2.80;;;2.70;;
12921;SDS011;6528;48.086;16.282;2022-07-15T02:16:10;3.07;;;2.83;;
12921;SDS011;6528;48.086;16.282;2022-07-15T02:18:37;5.10;;;2.90;;
12921;SDS011;6528;48.086;16.282;2022-07-15T02:21:04;4.03;;;3.73;;
12921;SDS011;6528;48.086;16.282;2022-07-15T02:23:31;3.27;;;3.07;;
12921;SDS011;6528;48.086;16.282;2022-07-15T02:25:58;4.03;;;3.73;;
12921;SDS011;6528;48.086;16.282;2022-07-15T02:28:25;6.50;;;3.93;;
12921;SDS011;6528;48.086;16.282;2022-07-15T02:30:52;4.90;;;4.40;;
12921;SDS011;6528;48.086;16.282;2022-07-15T02:33:19;4.97;;;4.47;;
12921;SDS011;6528;48.086;16.282;2022-07-15T02:35:46;6.30;;;4.90;;
12921;SDS011;6528;48.086;16.282;2022-07-15T02:38:13;4.50;;;4.20;;
12921;SDS011;6528;48.086;16.282;2022-07-15T02:40:40;5.33;;;4.90;;
12921;SDS011;6528;48.086;16.282;2022-07-15T02:43:10;4.80;;;4.30;;
12921;SDS011;6528;48.086;16.282;2022-07-15T02:45:37;5.40;;;5.00;;
12921;SDS011;6528;48.086;16.282;2022-07-15T02:48:04;6.33;;;5.20;;
12921;SDS011;6528;48.086;16.282;2022-07-15T02:50:32;4.93;;;4.53;;
12921;SDS011;6528;48.086;16.282;2022-07-15T02:52:59;7.00;;;5.00;;
12921;SDS011;6528;48.086;16.282;2022-07-15T02:55:30;8.20;;;5.50;;
12921;SDS011;6528;48.086;16.282;2022-07-15T02:57:56;8.43;;;5.60;;
12921;SDS011;6528;48.086;16.282;2022-07-15T03:00:23;6.10;;;5.27;;
12921;SDS011;6528;48.086;16.282;2022-07-15T03:02:50;6.40;;;5.90;;
12921;SDS011;6528;48.086;16.282;2022-07-15T03:05:17;6.67;;;5.60;;
12921;SDS011;6528;48.086;16.282;2022-07-15T03:07:45;6.50;;;5.90;;
12921;SDS011;6528;48.086;16.282;2022-07-15T03:10:12;6.67;;;6.07;;
12921;SDS011;6528;48.086;16.282;2022-07-15T03:12:39;7.37;;;6.00;;
12921;SDS011;6528;48.086;16.282;2022-07-15T03:15:06;6.30;;;5.80;;
12921;SDS011;6528;48.086;16.282;2022-07-15T03:17:34;6.00;;;5.40;;
12921;SDS011;6528;48.086;16.282;2022-07-15T03:20:00;6.27;;;5.70;;
12921;SDS011;6528;48.086;16.282;2022-07-15T03:22:28;6.47;;;5.87;;
12921;SDS011;6528;48.086;16.282;2022-07-15T03:24:54;5.80;;;5.20;;
12921;SDS011;6528;48.086;16.282;2022-07-15T03:27:21;5.80;;;5.20;;
12921;SDS011;6528;48.086;16.282;2022-07-15T03:29:49;6.80;;;6.20;;
12921;SDS011;6528;48.086;16.282;2022-07-15T03:32:16;7.17;;;6.50;;
12921;SDS011;6528;48.086;16.282;2022-07-15T03:34:45;7.10;;;6.47;;
12921;SDS011;6528;48.086;16.282;2022-07-15T03:37:13;6.43;;;5.87;;
12921;SDS011;6528;48.086;16.282;2022-07-15T03:39:40;6.73;;;6.10;;
12921;SDS011;6528;48.086;16.282;2022-07-15T03:42:07;6.43;;;5.90;;
12921;SDS011;6528;48.086;16.282;2022-07-15T03:44:34;7.23;;;6.73;;
12921;SDS011;6528;48.086;16.282;2022-07-15T03:47:01;7.30;;;6.60;;
12921;SDS011;6528;48.086;16.282;2022-07-15T03:49:28;6.77;;;6.17;;
12921;SDS011;6528;48.086;16.282;2022-07-15T03:51:55;7.60;;;7.00;;
12921;SDS011;6528;48.086;16.282;2022-07-15T03:54:21;7.80;;;7.10;;
12921;SDS011;6528;48.086;16.282;2022-07-15T03:56:49;11.60;;;7.23;;
12921;SDS011;6528;48.086;16.282;2022-07-15T03:59:16;7.13;;;6.53;;
12921;SDS011;6528;48.086;16.282;2022-07-15T04:01:44;7.90;;;7.33;;
12921;SDS011;6528;48.086;16.282;2022-07-15T04:04:10;8.80;;;7.80;;
12921;SDS011;6528;48.086;16.282;2022-07-15T04:06:37;9.33;;;7.30;;
12921;SDS011;6528;48.086;16.282;2022-07-15T04:09:04;10.37;;;7.57;;
12921;SDS011;6528;48.086;16.282;2022-07-15T04:11:31;8.67;;;7.87;;
12921;SDS011;6528;48.086;16.282;2022-07-15T04:13:58;8.83;;;8.03;;
12921;SDS011;6528;48.086;16.282;2022-07-15T04:16:25;10.50;;;7.67;;
12921;SDS011;6528;48.086;16.282;2022-07-15T04:18:52;7.87;;;7.27;;
12921;SDS011;6528;48.086;16.282;2022-07-15T04:21:19;8.40;;;7.30;;
12921;SDS011;6528;48.086;16.282;2022-07-15T04:23:46;7.70;;;7.10;;
12921;SDS011;6528;48.086;16.282;2022-07-15T04:26:13;7.63;;;6.90;;
12921;SDS011;6528;48.086;16.282;2022-07-15T04:28:40;6.43;;;5.93;;
12921;SDS011;6528;48.086;16.282;2022-07-15T04:31:07;7.67;;;7.07;;
12921;SDS011;6528;48.086;16.282;2022-07-15T04:33:33;9.17;;;8.43;;
12921;SDS011;6528;48.086;16.282;2022-07-15T04:36:00;8.03;;;7.47;;
12921;SDS011;6528;48.086;16.282;2022-07-15T04:38:27;7.90;;;7.30;;
12921;SDS011;6528;48.086;16.282;2022-07-15T04:40:54;7.67;;;7.07;;
12921;SDS011;6528;48.086;16.282;2022-07-15T04:43:21;8.40;;;7.60;;
12921;SDS011;6528;48.086;16.282;2022-07-15T04:45:47;7.50;;;6.80;;
12921;SDS011;6528;48.086;16.282;2022-07-15T04:48:14;7.53;;;6.83;;
12921;SDS011;6528;48.086;16.282;2022-07-15T04:51:00;7.83;;;7.13;;
12921;SDS011;6528;48.086;16.282;2022-07-15T04:53:27;7.50;;;7.00;;
12921;SDS011;6528;48.086;16.282;2022-07-15T04:55:54;8.03;;;7.43;;
12921;SDS011;6528;48.086;16.282;2022-07-15T04:58:21;8.90;;;8.10;;
12921;SDS011;6528;48.086;16.282;2022-07-15T05:00:48;8.97;;;7.70;;
12921;SDS011;6528;48.086;16.282;2022-07-15T05:03:15;6.90;;;6.40;;
12921;SDS011;6528;48.086;16.282;2022-07-15T05:05:41;8.60;;;7.80;;
12921;SDS011;6528;48.086;16.282;2022-07-15T05:08:08;7.57;;;6.97;;
12921;SDS011;6528;48.086;16.282;2022-07-15T05:10:35;7.60;;;7.00;;
12921;SDS011;6528;48.086;16.282;2022-07-15T05:13:02;6.80;;;6.30;;
12921;SDS011;6528;48.086;16.282;2022-07-15T05:15:29;7.87;;;7.27;;
12921;SDS011;6528;48.086;16.282;2022-07-15T05:17:57;7.00;;;6.40;;
12921;SDS011;6528;48.086;16.282;2022-07-15T05:20:24;8.17;;;7.10;;
12921;SDS011;6528;48.086;16.282;2022-07-15T05:22:51;7.20;;;6.60;;
12921;SDS011;6528;48.086;16.282;2022-07-15T05:25:17;6.13;;;5.53;;
12921;SDS011;6528;48.086;16.282;2022-07-15T05:27:45;7.60;;;6.90;;
12921;SDS011;6528;48.086;16.282;2022-07-15T05:30:12;7.10;;;6.47;;
12921;SDS011;6528;48.086;16.282;2022-07-15T05:32:39;6.60;;;6.07;;
12921;SDS011;6528;48.086;16.282;2022-07-15T05:35:06;6.17;;;5.67;;
12921;SDS011;6528;48.086;16.282;2022-07-15T05:37:37;7.07;;;6.47;;
12921;SDS011;6528;48.086;16.282;2022-07-15T05:40:06;6.20;;;5.70;;
12921;SDS011;6528;48.086;16.282;2022-07-15T05:42:33;8.27;;;6.20;;
12921;SDS011;6528;48.086;16.282;2022-07-15T05:45:01;6.70;;;5.60;;
12921;SDS011;6528;48.086;16.282;2022-07-15T05:47:28;6.60;;;5.93;;
12921;SDS011;6528;48.086;16.282;2022-07-15T05:49:55;5.70;;;5.27;;
12921;SDS011;6528;48.086;16.282;2022-07-15T05:52:21;6.30;;;5.80;;
12921;SDS011;6528;48.086;16.282;2022-07-15T05:54:48;6.67;;;6.03;;
12921;SDS011;6528;48.086;16.282;2022-07-15T05:57:15;5.63;;;5.23;;
12921;SDS011;6528;48.086;16.282;2022-07-15T05:59:42;5.20;;;4.80;;
12921;SDS011;6528;48.086;16.282;2022-07-15T06:02:09;6.70;;;6.10;;
12921;SDS011;6528;48.086;16.282;2022-07-15T06:04:36;5.63;;;5.13;;
12921;SDS011;6528;48.086;16.282;2022-07-15T06:07:03;7.17;;;4.93;;
12921;SDS011;6528;48.086;16.282;2022-07-15T06:09:30;5.13;;;4.73;;
12921;SDS011;6528;48.086;16.282;2022-07-15T06:11:57;6.03;;;5.00;;
12921;SDS011;6528;48.086;16.282;2022-07-15T06:14:25;7.47;;;5.40;;
12921;SDS011;6528;48.086;16.282;2022-07-15T06:16:52;5.83;;;4.33;;
12921;SDS011;6528;48.086;16.282;2022-07-15T06:19:18;4.97;;;4.43;;
12921;SDS011;6528;48.086;16.282;2022-07-15T06:21:45;5.07;;;4.67;;
12921;SDS011;6528;48.086;16.282;2022-07-15T06:24:12;6.20;;;5.30;;
12921;SDS011;6528;48.086;16.282;2022-07-15T06:26:39;6.23;;;4.90;;
12921;SDS011;6528;48.086;16.282;2022-07-15T06:29:06;6.73;;;4.27;;
12921;SDS011;6528;48.086;16.282;2022-07-15T06:31:33;5.60;;;3.73;;
12921;SDS011;6528;48.086;16.282;2022-07-15T06:34:00;4.63;;;3.63;;
12921;SDS011;6528;48.086;16.282;2022-07-15T06:36:27;4.27;;;3.87;;
12921;SDS011;6528;48.086;16.282;2022-07-15T06:38:54;4.50;;;4.10;;
12921;SDS011;6528;48.086;16.282;2022-07-15T06:41:20;6.40;;;3.87;;
12921;SDS011;6528;48.086;16.282;2022-07-15T06:43:54;4.93;;;4.40;;
12921;SDS011;6528;48.086;16.282;2022-07-15T06:46:20;5.50;;;3.97;;
12921;SDS011;6528;48.086;16.282;2022-07-15T06:48:47;4.50;;;3.23;;
12921;SDS011;6528;48.086;16.282;2022-07-15T06:51:14;5.30;;;3.50;;
12921;SDS011;6528;48.086;16.282;2022-07-15T06:53:42;4.77;;;3.10;;
12921;SDS011;6528;48.086;16.282;2022-07-15T06:56:09;4.93;;;3.87;;
12921;SDS011;6528;48.086;16.282;2022-07-15T06:58:36;3.83;;;2.87;;
12921;SDS011;6528;48.086;16.282;2022-07-15T07:01:03;11.40;;;3.40;;
12921;SDS011;6528;48.086;16.282;2022-07-15T07:03:30;3.00;;;2.13;;
12921;SDS011;6528;48.086;16.282;2022-07-15T07:06:17;4.60;;;2.53;;
12921;SDS011;6528;48.086;16.282;2022-07-15T07:08:44;4.87;;;2.70;;
12921;SDS011;6528;48.086;16.282;2022-07-15T07:11:12;3.40;;;2.53;;
12921;SDS011;6528;48.086;16.282;2022-07-15T07:13:40;3.43;;;2.20;;
12921;SDS011;6528;48.086;16.282;2022-07-15T07:16:07;2.50;;;2.03;;
12921;SDS011;6528;48.086;16.282;2022-07-15T07:18:35;2.30;;;2.10;;
12921;SDS011;6528;48.086;16.282;2022-07-15T07:21:02;2.03;;;1.90;;
12921;SDS011;6528;48.086;16.282;2022-07-15T07:23:29;4.37;;;1.87;;
12921;SDS011;6528;48.086;16.282;2022-07-15T07:25:57;2.33;;;2.10;;
12921;SDS011;6528;48.086;16.282;2022-07-15T07:28:25;2.38;;;2.17;;
12921;SDS011;6528;48.086;16.282;2022-07-15T07:30:52;3.97;;;1.77;;
12921;SDS011;6528;48.086;16.282;2022-07-15T07:33:21;2.55;;;1.92;;
12921;SDS011;6528;48.086;16.282;2022-07-15T07:35:48;3.67;;;2.38;;
12921;SDS011;6528;48.086;16.282;2022-07-15T07:38:15;1.95;;;1.85;;
12921;SDS011;6528;48.086;16.282;2022-07-15T07:40:43;2.35;;;1.67;;
12921;SDS011;6528;48.086;16.282;2022-07-15T07:43:10;1.98;;;1.80;;
12921;SDS011;6528;48.086;16.282;2022-07-15T07:45:37;1.95;;;1.80;;
12921;SDS011;6528;48.086;16.282;2022-07-15T07:48:04;3.60;;;1.75;;
12921;SDS011;6528;48.086;16.282;2022-07-15T07:50:31;1.85;;;1.70;;
12921;SDS011;6528;48.086;16.282;2022-07-15T07:52:58;4.78;;;1.75;;
12921;SDS011;6528;48.086;16.282;2022-07-15T07:55:25;1.52;;;1.50;;
12921;SDS011;6528;48.086;16.282;2022-07-15T07:57:53;4.68;;;1.48;;
12921;SDS011;6528;48.086;16.282;2022-07-15T08:00:21;2.92;;;1.42;;
12921;SDS011;6528;48.086;16.282;2022-07-15T08:02:49;2.03;;;1.48;;
12921;SDS011;6528;48.086;16.282;2022-07-15T08:05:16;4.68;;;1.60;;
12921;SDS011;6528;48.086;16.282;2022-07-15T08:07:50;5.50;;;2.00;;
12921;SDS011;6528;48.086;16.282;2022-07-15T08:10:18;2.72;;;1.30;;
12921;SDS011;6528;48.086;16.282;2022-07-15T08:12:45;1.50;;;1.40;;
12921;SDS011;6528;48.086;16.282;2022-07-15T08:15:12;2.22;;;1.20;;
12921;SDS011;6528;48.086;16.282;2022-07-15T08:17:41;1.73;;;1.30;;
12921;SDS011;6528;48.086;16.282;2022-07-15T08:20:08;3.45;;;1.58;;
12921;SDS011;6528;48.086;16.282;2022-07-15T08:22:36;1.20;;;1.02;;
12921;SDS011;6528;48.086;16.282;2022-07-15T08:25:03;2.15;;;1.33;;
12921;SDS011;6528;48.086;16.282;2022-07-15T08:27:30;2.13;;;1.13;;
12921;SDS011;6528;48.086;16.282;2022-07-15T08:29:57;1.50;;;1.40;;
12921;SDS011;6528;48.086;16.282;2022-07-15T08:32:24;3.35;;;1.52;;
12921;SDS011;6528;48.086;16.282;2022-07-15T08:34:51;3.72;;;1.55;;
12921;SDS011;6528;48.086;16.282;2022-07-15T08:37:18;2.33;;;1.20;;
12921;SDS011;6528;48.086;16.282;2022-07-15T08:39:44;7.13;;;1.48;;
12921;SDS011;6528;48.086;16.282;2022-07-15T08:42:12;1.45;;;1.35;;
12921;SDS011;6528;48.086;16.282;2022-07-15T08:44:40;1.63;;;1.23;;
12921;SDS011;6528;48.086;16.282;2022-07-15T08:47:07;3.63;;;1.42;;
12921;SDS011;6528;48.086;16.282;2022-07-15T08:49:57;1.73;;;1.10;;
12921;SDS011;6528;48.086;16.282;2022-07-15T08:52:25;1.23;;;1.13;;
12921;SDS011;6528;48.086;16.282;2022-07-15T08:54:52;1.60;;;1.40;;
12921;SDS011;6528;48.086;16.282;2022-07-15T08:57:19;1.92;;;1.20;;
12921;SDS011;6528;48.086;16.282;2022-07-15T08:59:46;3.20;;;1.40;;
12921;SDS011;6528;48.086;16.282;2022-07-15T09:02:13;2.85;;;1.40;;
12921;SDS011;6528;48.086;16.282;2022-07-15T09:10:17;1.08;;;0.95;;
12921;SDS011;6528;48.086;16.282;2022-07-15T09:12:43;1.38;;;1.27;;
12921;SDS011;6528;48.086;16.282;2022-07-15T09:15:31;3.17;;;1.13;;
12921;SDS011;6528;48.086;16.282;2022-07-15T09:18:42;3.47;;;1.48;;
12921;SDS011;6528;48.086;16.282;2022-07-15T09:20:51;3.05;;;1.52;;
12921;SDS011;6528;48.086;16.282;2022-07-15T09:23:20;1.55;;;1.35;;
12921;SDS011;6528;48.086;16.282;2022-07-15T09:28:55;1.50;;;1.10;;
12921;SDS011;6528;48.086;16.282;2022-07-15T09:34:16;2.80;;;1.40;;
12921;SDS011;6528;48.086;16.282;2022-07-15T09:36:45;3.03;;;1.60;;
12921;SDS011;6528;48.086;16.282;2022-07-15T09:39:24;2.47;;;1.27;;
12921;SDS011;6528;48.086;16.282;2022-07-15T09:41:52;2.63;;;1.27;;
12921;SDS011;6528;48.086;16.282;2022-07-15T09:44:27;1.60;;;1.15;;
12921;SDS011;6528;48.086;16.282;2022-07-15T09:46:57;2.22;;;1.00;;
12921;SDS011;6528;48.086;16.282;2022-07-15T09:51:58;3.78;;;1.63;;
12921;SDS011;6528;48.086;16.282;2022-07-15T09:54:31;1.42;;;1.23;;
12921;SDS011;6528;48.086;16.282;2022-07-15T09:57:06;2.55;;;1.38;;
12921;SDS011;6528;48.086;16.282;2022-07-15T09:59:34;2.22;;;1.70;;
12921;SDS011;6528;48.086;16.282;2022-07-15T10:02:06;1.40;;;1.30;;
12921;SDS011;6528;48.086;16.282;2022-07-15T10:04:33;3.15;;;1.40;;
12921;SDS011;6528;48.086;16.282;2022-07-15T10:07:00;2.45;;;1.65;;
12921;SDS011;6528;48.086;16.282;2022-07-15T10:09:48;4.82;;;1.55;;
12921;SDS011;6528;48.086;16.282;2022-07-15T10:12:19;2.13;;;1.30;;
12921;SDS011;6528;48.086;16.282;2022-07-15T10:28:45;2.42;;;1.80;;
12921;SDS011;6528;48.086;16.282;2022-07-15T10:31:34;3.17;;;2.03;;
12921;SDS011;6528;48.086;16.282;2022-07-15T10:34:15;2.13;;;1.60;;
12921;SDS011;6528;48.086;16.282;2022-07-15T10:39:13;2.73;;;1.97;;
12921;SDS011;6528;48.086;16.282;2022-07-15T10:44:31;2.27;;;1.97;;
12921;SDS011;6528;48.086;16.282;2022-07-15T10:49:41;3.50;;;1.90;;
12921;SDS011;6528;48.086;16.282;2022-07-15T10:52:20;3.73;;;1.80;;
12921;SDS011;6528;48.086;16.282;2022-07-15T10:54:50;3.73;;;1.90;;
12921;SDS011;6528;48.086;16.282;2022-07-15T10:57:32;3.50;;;2.07;;
12921;SDS011;6528;48.086;16.282;2022-07-15T11:00:25;4.00;;;2.37;;
12921;SDS011;6528;48.086;16.282;2022-07-15T11:03:07;4.07;;;2.33;;
12921;SDS011;6528;48.086;16.282;2022-07-15T11:13:40;3.73;;;2.40;;
12921;SDS011;6528;48.086;16.282;2022-07-15T11:16:11;2.30;;;1.90;;
12921;SDS011;6528;48.086;16.282;2022-07-15T11:21:12;3.90;;;2.30;;
12921;SDS011;6528;48.086;16.282;2022-07-15T11:23:40;3.87;;;2.20;;
12921;SDS011;6528;48.086;16.282;2022-07-15T11:26:09;6.33;;;2.30;;
12921;SDS011;6528;48.086;16.282;2022-07-15T11:28:36;3.33;;;2.30;;
12921;SDS011;6528;48.086;16.282;2022-07-15T11:31:03;3.43;;;2.77;;
12921;SDS011;6528;48.086;16.282;2022-07-15T11:33:31;3.30;;;2.63;;
12921;SDS011;6528;48.086;16.282;2022-07-15T11:35:59;4.30;;;2.67;;
12921;SDS011;6528;48.086;16.282;2022-07-15T11:38:33;3.47;;;1.93;;
12921;SDS011;6528;48.086;16.282;2022-07-15T11:41:04;3.13;;;2.23;;
12921;SDS011;6528;48.086;16.282;2022-07-15T11:43:57;4.17;;;1.83;;
12921;SDS011;6528;48.086;16.282;2022-07-15T11:46:44;2.40;;;2.20;;
12921;SDS011;6528;48.086;16.282;2022-07-15T11:49:24;4.30;;;2.37;;
12921;SDS011;6528;48.086;16.282;2022-07-15T11:52:00;2.37;;;2.17;;
12921;SDS011;6528;48.086;16.282;2022-07-15T11:54:28;4.73;;;2.10;;
12921;SDS011;6528;48.086;16.282;2022-07-15T11:56:59;4.10;;;2.27;;
12921;SDS011;6528;48.086;16.282;2022-07-15T11:59:29;5.37;;;2.30;;
12921;SDS011;6528;48.086;16.282;2022-07-15T12:02:01;2.80;;;2.17;;
12921;SDS011;6528;48.086;16.282;2022-07-15T12:04:28;2.33;;;2.10;;
12921;SDS011;6528;48.086;16.282;2022-07-15T12:06:55;3.27;;;2.50;;
12921;SDS011;6528;48.086;16.282;2022-07-15T12:09:22;3.60;;;2.17;;
12921;SDS011;6528;48.086;16.282;2022-07-15T12:11:49;2.50;;;2.30;;
12921;SDS011;6528;48.086;16.282;2022-07-15T12:14:19;4.40;;;2.27;;
12921;SDS011;6528;48.086;16.282;2022-07-15T12:19:16;3.07;;;2.77;;
12921;SDS011;6528;48.086;16.282;2022-07-15T12:21:44;2.30;;;2.17;;
12921;SDS011;6528;48.086;16.282;2022-07-15T12:24:22;3.33;;;2.20;;
12921;SDS011;6528;48.086;16.282;2022-07-15T12:29:19;2.40;;;2.10;;
12921;SDS011;6528;48.086;16.282;2022-07-15T12:31:59;4.70;;;2.73;;
12921;SDS011;6528;48.086;16.282;2022-07-15T12:37:14;2.47;;;2.27;;
12921;SDS011;6528;48.086;16.282;2022-07-15T12:40:04;2.40;;;2.20;;
12921;SDS011;6528;48.086;16.282;2022-07-15T12:42:30;3.03;;;2.27;;
12921;SDS011;6528;48.086;16.282;2022-07-15T12:45:35;2.60;;;2.37;;
12921;SDS011;6528;48.086;16.282;2022-07-15T12:50:26;3.30;;;1.97;;
12921;SDS011;6528;48.086;16.282;2022-07-15T12:52:55;3.70;;;2.60;;
12921;SDS011;6528;48.086;16.282;2022-07-15T12:55:26;5.63;;;2.20;;
12921;SDS011;6528;48.086;16.282;2022-07-15T12:58:06;2.73;;;2.30;;
12921;SDS011;6528;48.086;16.282;2022-07-15T13:00:34;6.13;;;2.07;;
12921;SDS011;6528;48.086;16.282;2022-07-15T13:03:03;2.30;;;2.10;;
12921;SDS011;6528;48.086;16.282;2022-07-15T13:08:32;3.57;;;2.00;;
12921;SDS011;6528;48.086;16.282;2022-07-15T13:11:02;2.23;;;2.03;;
12921;SDS011;6528;48.086;16.282;2022-07-15T13:13:32;4.60;;;2.40;;
12921;SDS011;6528;48.086;16.282;2022-07-15T13:16:03;2.90;;;2.27;;
12921;SDS011;6528;48.086;16.282;2022-07-15T13:18:32;4.50;;;2.50;;
12921;SDS011;6528;48.086;16.282;2022-07-15T13:21:00;3.60;;;2.33;;
12921;SDS011;6528;48.086;16.282;2022-07-15T13:23:27;2.37;;;2.17;;
12921;SDS011;6528;48.086;16.282;2022-07-15T13:25:54;2.43;;;2.20;;
12921;SDS011;6528;48.086;16.282;2022-07-15T13:28:21;2.60;;;1.80;;
12921;SDS011;6528;48.086;16.282;2022-07-15T13:30:49;2.00;;;1.90;;
12921;SDS011;6528;48.086;16.282;2022-07-15T13:33:17;2.10;;;2.00;;
12921;SDS011;6528;48.086;16.282;2022-07-15T13:35:44;4.70;;;2.90;;
12921;SDS011;6528;48.086;16.282;2022-07-15T13:38:11;2.30;;;2.10;;
12921;SDS011;6528;48.086;16.282;2022-07-15T13:40:38;3.93;;;2.20;;
12921;SDS011;6528;48.086;16.282;2022-07-15T13:43:05;2.90;;;2.00;;
12921;SDS011;6528;48.086;16.282;2022-07-15T13:45:32;1.97;;;1.87;;
12921;SDS011;6528;48.086;16.282;2022-07-15T13:47:59;2.50;;;2.20;;
12921;SDS011;6528;48.086;16.282;2022-07-15T13:50:26;1.83;;;1.73;;
12921;SDS011;6528;48.086;16.282;2022-07-15T13:53:12;2.53;;;2.33;;
12921;SDS011;6528;48.086;16.282;2022-07-15T13:55:40;2.47;;;2.27;;
12921;SDS011;6528;48.086;16.282;2022-07-15T13:58:19;2.67;;;2.00;;
12921;SDS011;6528;48.086;16.282;2022-07-15T14:00:46;3.20;;;1.97;;
12921;SDS011;6528;48.086;16.282;2022-07-15T14:03:13;2.00;;;1.90;;
12921;SDS011;6528;48.086;16.282;2022-07-15T14:05:40;3.20;;;1.80;;
12921;SDS011;6528;48.086;16.282;2022-07-15T14:08:07;4.80;;;2.10;;
12921;SDS011;6528;48.086;16.282;2022-07-15T14:10:33;3.00;;;2.10;;
12921;SDS011;6528;48.086;16.282;2022-07-15T14:13:00;2.67;;;1.70;;
12921;SDS011;6528;48.086;16.282;2022-07-15T14:15:27;2.43;;;2.27;;
12921;SDS011;6528;48.086;16.282;2022-07-15T14:18:02;2.53;;;2.33;;
12921;SDS011;6528;48.086;16.282;2022-07-15T14:20:30;4.50;;;2.10;;
12921;SDS011;6528;48.086;16.282;2022-07-15T14:22:57;3.30;;;2.23;;
12921;SDS011;6528;48.086;16.282;2022-07-15T14:25:24;2.57;;;2.37;;
12921;SDS011;6528;48.086;16.282;2022-07-15T14:27:52;2.90;;;2.00;;
12921;SDS011;6528;48.086;16.282;2022-07-15T14:30:20;3.03;;;2.00;;
12921;SDS011;6528;48.086;16.282;2022-07-15T14:32:48;4.10;;;2.10;;
12921;SDS011;6528;48.086;16.282;2022-07-15T14:35:15;2.47;;;2.27;;
12921;SDS011;6528;48.086;16.282;2022-07-15T14:37:42;2.27;;;2.00;;
12921;SDS011;6528;48.086;16.282;2022-07-15T14:40:09;2.40;;;2.20;;
12921;SDS011;6528;48.086;16.282;2022-07-15T14:42:36;4.97;;;2.37;;
12921;SDS011;6528;48.086;16.282;2022-07-15T14:45:05;2.70;;;2.20;;
12921;SDS011;6528;48.086;16.282;2022-07-15T14:47:32;2.90;;;1.97;;
12921;SDS011;6528;48.086;16.282;2022-07-15T14:49:59;3.67;;;2.40;;
12921;SDS011;6528;48.086;16.282;2022-07-15T14:52:26;2.00;;;1.90;;
12921;SDS011;6528;48.086;16.282;2022-07-15T14:54:53;6.47;;;2.23;;
12921;SDS011;6528;48.086;16.282;2022-07-15T14:57:21;3.03;;;2.30;;
12921;SDS011;6528;48.086;16.282;2022-07-15T14:59:48;2.83;;;2.53;;
12921;SDS011;6528;48.086;16.282;2022-07-15T15:02:15;2.93;;;2.40;;
12921;SDS011;6528;48.086;16.282;2022-07-15T15:04:42;2.60;;;2.07;;
12921;SDS011;6528;48.086;16.282;2022-07-15T15:07:09;2.40;;;2.20;;
12921;SDS011;6528;48.086;16.282;2022-07-15T15:09:36;2.40;;;2.20;;
12921;SDS011;6528;48.086;16.282;2022-07-15T15:12:03;3.40;;;2.07;;
12921;SDS011;6528;48.086;16.282;2022-07-15T15:14:34;2.50;;;2.17;;
12921;SDS011;6528;48.086;16.282;2022-07-15T15:17:02;5.17;;;2.50;;
12921;SDS011;6528;48.086;16.282;2022-07-15T15:19:32;2.90;;;2.30;;
12921;SDS011;6528;48.086;16.282;2022-07-15T15:21:59;2.50;;;2.20;;
12921;SDS011;6528;48.086;16.282;2022-07-15T15:24:27;3.73;;;2.43;;
12921;SDS011;6528;48.086;16.282;2022-07-15T15:26:54;2.60;;;2.20;;
12921;SDS011;6528;48.086;16.282;2022-07-15T15:29:22;2.10;;;1.90;;
12921;SDS011;6528;48.086;16.282;2022-07-15T15:31:49;5.50;;;2.70;;
12921;SDS011;6528;48.086;16.282;2022-07-15T15:34:17;3.33;;;2.50;;
12921;SDS011;6528;48.086;16.282;2022-07-15T15:36:44;2.93;;;2.73;;
12921;SDS011;6528;48.086;16.282;2022-07-15T15:39:13;3.07;;;2.00;;
12921;SDS011;6528;48.086;16.282;2022-07-15T15:41:40;2.93;;;2.67;;
12921;SDS011;6528;48.086;16.282;2022-07-15T15:44:07;2.67;;;2.47;;
12921;SDS011;6528;48.086;16.282;2022-07-15T15:46:34;4.17;;;2.20;;
12921;SDS011;6528;48.086;16.282;2022-07-15T15:49:01;3.57;;;2.17;;
12921;SDS011;6528;48.086;16.282;2022-07-15T15:51:28;2.93;;;2.70;;
12921;SDS011;6528;48.086;16.282;2022-07-15T15:53:55;2.73;;;2.30;;
12921;SDS011;6528;48.086;16.282;2022-07-15T15:56:22;3.93;;;2.73;;
12921;SDS011;6528;48.086;16.282;2022-07-15T15:58:49;2.40;;;2.20;;